sensor_id;sensor_type;location;lat;lon;timestamp;P1;durP1;ratioP1;P2;durP2;ratioP2
27039;SDS011;14589;51.578;7.306;2023-03-11T06:01:18;0.00;;;0.00;;
27039;SDS011;14589;51.578;7.306;2023-03-11T06:03:45;0.10;;;0.10;;
27039;SDS011;14589;51.578;7.306;2023-03-11T06:06:15;0.00;;;0.00;;
27039;SDS011;14589;51.578;7.306;2023-03-11T06:08:42;0.00;;;0.00;;
27039;SDS011;14589;51.578;7.306;2023-03-11T06:11:14;0.00;;;0.00;;
27039;SDS011;14589;51.578;7.306;2023-03-11T06:13:40;0.00;;;0.00;;
27039;SDS011;14589;51.578;7.306;2023-03-11T06:16:08;0.00;;;0.00;;
27039;SDS011;14589;51.578;7.306;2023-03-11T06:18:34;0.00;;;0.00;;
27039;SDS011;14589;51.578;7.306;2023-03-11T06:21:02;0.00;;;0.00;;
27039;SDS011;14589;51.578;7.306;2023-03-11T06:26:06;0.00;;;0.00;;
27039;SDS011;14589;51.578;7.306;2023-03-11T06:28:36;0.00;;;0.00;;
27039;SDS011;14589;51.578;7.306;2023-03-11T06:31:09;0.00;;;0.00;;
27039;SDS011;14589;51.578;7.306;2023-03-11T06:33:36;0.00;;;0.00;;
27039;SDS011;14589;51.578;7.306;2023-03-11T06:36:02;0.00;;;0.00;;
27039;SDS011;14589;51.578;7.306;2023-03-11T06:38:29;0.00;;;0.00;;
27039;SDS011;14589;51.578;7.306;2023-03-11T06:41:01;0.00;;;0.00;;
27039;SDS011;14589;51.578;7.306;2023-03-11T06:43:29;0.10;;;0.10;;
27039;SDS011;14589;51.578;7.306;2023-03-11T06:45:57;0.00;;;0.00;;
27039;SDS011;14589;51.578;7.306;2023-03-11T06:48:23;0.00;;;0.00;;
27039;SDS011;14589;51.578;7.306;2023-03-11T06:50:54;0.00;;;0.00;;
27039;SDS011;14589;51.578;7.306;2023-03-11T06:53:20;0.03;;;0.03;;
27039;SDS011;14589;51.578;7.306;2023-03-11T06:55:56;0.00;;;0.00;;
27039;SDS011;14589;51.578;7.306;2023-03-11T06:58:22;0.05;;;0.05;;
27039;SDS011;14589;51.578;7.306;2023-03-11T07:00:48;0.00;;;0.00;;
27039;SDS011;14589;51.578;7.306;2023-03-11T07:03:13;0.10;;;0.10;;
27039;SDS011;14589;51.578;7.306;2023-03-11T07:05:38;0.05;;;0.05;;
27039;SDS011;14589;51.578;7.306;2023-03-11T07:08:07;0.00;;;0.00;;
27039;SDS011;14589;51.578;7.306;2023-03-11T07:10:33;0.10;;;0.10;;
27039;SDS011;14589;51.578;7.306;2023-03-11T07:12:59;0.08;;;0.08;;
27039;SDS011;14589;51.578;7.306;2023-03-11T07:15:25;0.00;;;0.00;;
27039;SDS011;14589;51.578;7.306;2023-03-11T07:17:51;0.10;;;0.10;;
27039;SDS011;14589;51.578;7.306;2023-03-11T07:20:16;0.10;;;0.10;;
27039;SDS011;14589;51.578;7.306;2023-03-11T07:22:45;0.10;;;0.10;;
27039;SDS011;14589;51.578;7.306;2023-03-11T07:25:10;0.10;;;0.10;;
27039;SDS011;14589;51.578;7.306;2023-03-11T07:27:36;0.10;;;0.10;;
27039;SDS011;14589;51.578;7.306;2023-03-11T07:30:01;0.10;;;0.10;;
27039;SDS011;14589;51.578;7.306;2023-03-11T07:32:27;0.10;;;0.10;;
27039;SDS011;14589;51.578;7.306;2023-03-11T07:34:53;0.10;;;0.10;;
27039;SDS011;14589;51.578;7.306;2023-03-11T07:37:18;0.10;;;0.10;;
27039;SDS011;14589;51.578;7.306;2023-03-11T07:39:44;0.10;;;0.10;;
27039;SDS011;14589;51.578;7.306;2023-03-11T07:42:09;0.10;;;0.10;;
27039;SDS011;14589;51.578;7.306;2023-03-11T07:44:35;0.10;;;0.10;;
27039;SDS011;14589;51.578;7.306;2023-03-11T07:47:01;0.10;;;0.10;;
27039;SDS011;14589;51.578;7.306;2023-03-11T07:49:29;0.10;;;0.10;;
27039;SDS011;14589;51.578;7.306;2023-03-11T07:51:55;0.13;;;0.13;;
27039;SDS011;14589;51.578;7.306;2023-03-11T07:54:21;0.10;;;0.10;;
27039;SDS011;14589;51.578;7.306;2023-03-11T07:56:46;0.20;;;0.20;;
27039;SDS011;14589;51.578;7.306;2023-03-11T07:59:11;0.10;;;0.10;;
27039;SDS011;14589;51.578;7.306;2023-03-11T08:01:37;0.10;;;0.10;;
27039;SDS011;14589;51.578;7.306;2023-03-11T08:04:06;0.10;;;0.10;;
27039;SDS011;14589;51.578;7.306;2023-03-11T08:06:34;0.10;;;0.10;;
27039;SDS011;14589;51.578;7.306;2023-03-11T08:09:02;0.20;;;0.20;;
27039;SDS011;14589;51.578;7.306;2023-03-11T08:11:31;0.10;;;0.10;;
27039;SDS011;14589;51.578;7.306;2023-03-11T08:13:56;0.10;;;0.10;;
27039;SDS011;14589;51.578;7.306;2023-03-11T08:16:22;0.10;;;0.10;;
27039;SDS011;14589;51.578;7.306;2023-03-11T08:18:48;0.10;;;0.10;;
27039;SDS011;14589;51.578;7.306;2023-03-11T08:21:16;0.20;;;0.20;;
27039;SDS011;14589;51.578;7.306;2023-03-11T08:23:45;0.10;;;0.10;;
27039;SDS011;14589;51.578;7.306;2023-03-11T08:26:11;0.10;;;0.10;;
27039;SDS011;14589;51.578;7.306;2023-03-11T08:28:38;0.13;;;0.13;;
27039;SDS011;14589;51.578;7.306;2023-03-11T08:31:11;0.10;;;0.10;;
27039;SDS011;14589;51.578;7.306;2023-03-11T08:33:38;0.20;;;0.20;;
27039;SDS011;14589;51.578;7.306;2023-03-11T08:36:06;0.10;;;0.10;;
27039;SDS011;14589;51.578;7.306;2023-03-11T08:38:31;0.10;;;0.10;;
27039;SDS011;14589;51.578;7.306;2023-03-11T08:40:57;0.20;;;0.20;;
27039;SDS011;14589;51.578;7.306;2023-03-11T08:43:22;0.13;;;0.13;;
27039;SDS011;14589;51.578;7.306;2023-03-11T08:45:47;0.10;;;0.10;;
27039;SDS011;14589;51.578;7.306;2023-03-11T08:48:14;0.20;;;0.20;;
27039;SDS011;14589;51.578;7.306;2023-03-11T08:50:40;0.20;;;0.20;;
27039;SDS011;14589;51.578;7.306;2023-03-11T08:53:06;0.20;;;0.20;;
27039;SDS011;14589;51.578;7.306;2023-03-11T08:55:33;0.20;;;0.20;;
27039;SDS011;14589;51.578;7.306;2023-03-11T08:58:04;0.20;;;0.20;;
27039;SDS011;14589;51.578;7.306;2023-03-11T09:00:30;0.20;;;0.20;;
27039;SDS011;14589;51.578;7.306;2023-03-11T09:02:55;0.20;;;0.20;;
27039;SDS011;14589;51.578;7.306;2023-03-11T09:05:21;0.20;;;0.20;;
27039;SDS011;14589;51.578;7.306;2023-03-11T09:07:46;0.17;;;0.17;;
27039;SDS011;14589;51.578;7.306;2023-03-11T09:10:12;0.20;;;0.20;;
27039;SDS011;14589;51.578;7.306;2023-03-11T09:12:39;0.20;;;0.20;;
27039;SDS011;14589;51.578;7.306;2023-03-11T09:15:05;0.20;;;0.20;;
27039;SDS011;14589;51.578;7.306;2023-03-11T09:17:31;0.20;;;0.20;;
27039;SDS011;14589;51.578;7.306;2023-03-11T09:19:56;0.20;;;0.20;;
27039;SDS011;14589;51.578;7.306;2023-03-11T09:22:22;0.20;;;0.20;;
27039;SDS011;14589;51.578;7.306;2023-03-11T09:24:48;0.20;;;0.20;;
27039;SDS011;14589;51.578;7.306;2023-03-11T09:27:13;0.20;;;0.20;;
27039;SDS011;14589;51.578;7.306;2023-03-11T09:29:39;0.20;;;0.20;;
27039;SDS011;14589;51.578;7.306;2023-03-11T09:32:05;0.20;;;0.20;;
27039;SDS011;14589;51.578;7.306;2023-03-11T09:34:31;0.30;;;0.30;;
27039;SDS011;14589;51.578;7.306;2023-03-11T09:36:57;0.20;;;0.20;;
27039;SDS011;14589;51.578;7.306;2023-03-11T09:39:22;0.20;;;0.20;;
27039;SDS011;14589;51.578;7.306;2023-03-11T09:44:53;0.20;;;0.20;;
27039;SDS011;14589;51.578;7.306;2023-03-11T09:55:25;0.20;;;0.20;;
27039;SDS011;14589;51.578;7.306;2023-03-11T10:00:50;0.10;;;0.10;;
27039;SDS011;14589;51.578;7.306;2023-03-11T10:03:30;0.10;;;0.10;;
27039;SDS011;14589;51.578;7.306;2023-03-11T10:08:46;0.20;;;0.20;;
27039;SDS011;14589;51.578;7.306;2023-03-11T10:14:13;0.20;;;0.20;;
27039;SDS011;14589;51.578;7.306;2023-03-11T10:17:10;0.20;;;0.20;;
27039;SDS011;14589;51.578;7.306;2023-03-11T10:22:26;0.20;;;0.20;;
27039;SDS011;14589;51.578;7.306;2023-03-11T10:25:01;0.20;;;0.20;;
27039;SDS011;14589;51.578;7.306;2023-03-11T10:27:38;0.20;;;0.20;;
27039;SDS011;14589;51.578;7.306;2023-03-11T10:30:50;0.20;;;0.20;;
27039;SDS011;14589;51.578;7.306;2023-03-11T10:33:10;0.20;;;0.20;;
27039;SDS011;14589;51.578;7.306;2023-03-11T10:35:45;0.20;;;0.20;;
27039;SDS011;14589;51.578;7.306;2023-03-11T10:38:17;0.20;;;0.20;;
27039;SDS011;14589;51.578;7.306;2023-03-11T10:40:45;0.20;;;0.20;;
27039;SDS011;14589;51.578;7.306;2023-03-11T10:43:25;0.20;;;0.20;;
27039;SDS011;14589;51.578;7.306;2023-03-11T10:45:52;0.20;;;0.20;;
27039;SDS011;14589;51.578;7.306;2023-03-11T10:48:18;0.20;;;0.20;;
27039;SDS011;14589;51.578;7.306;2023-03-11T10:53:42;0.20;;;0.20;;
27039;SDS011;14589;51.578;7.306;2023-03-11T10:56:09;0.20;;;0.20;;
27039;SDS011;14589;51.578;7.306;2023-03-11T10:59:05;0.20;;;0.20;;
27039;SDS011;14589;51.578;7.306;2023-03-11T11:01:52;0.30;;;0.30;;
27039;SDS011;14589;51.578;7.306;2023-03-11T11:04:28;0.20;;;0.20;;
27039;SDS011;14589;51.578;7.306;2023-03-11T11:15:40;0.20;;;0.20;;
27039;SDS011;14589;51.578;7.306;2023-03-11T11:20:57;0.20;;;0.20;;
27039;SDS011;14589;51.578;7.306;2023-03-11T11:23:46;0.20;;;0.20;;
27039;SDS011;14589;51.578;7.306;2023-03-11T11:34:21;0.20;;;0.20;;
27039;SDS011;14589;51.578;7.306;2023-03-11T11:36:56;0.20;;;0.20;;
27039;SDS011;14589;51.578;7.306;2023-03-11T11:39:24;0.20;;;0.20;;
27039;SDS011;14589;51.578;7.306;2023-03-11T11:41:54;0.20;;;0.20;;
27039;SDS011;14589;51.578;7.306;2023-03-11T11:44:20;0.30;;;0.30;;
27039;SDS011;14589;51.578;7.306;2023-03-11T11:46:48;0.20;;;0.20;;
27039;SDS011;14589;51.578;7.306;2023-03-11T11:51:46;0.30;;;0.30;;
27039;SDS011;14589;51.578;7.306;2023-03-11T11:59:35;0.20;;;0.20;;
27039;SDS011;14589;51.578;7.306;2023-03-11T12:02:15;0.30;;;0.30;;
27039;SDS011;14589;51.578;7.306;2023-03-11T12:18:45;0.30;;;0.30;;
27039;SDS011;14589;51.578;7.306;2023-03-11T12:26:49;0.30;;;0.30;;
27039;SDS011;14589;51.578;7.306;2023-03-11T12:31:58;0.30;;;0.30;;
27039;SDS011;14589;51.578;7.306;2023-03-11T12:34:24;0.28;;;0.28;;
27039;SDS011;14589;51.578;7.306;2023-03-11T12:36:50;0.30;;;0.30;;
27039;SDS011;14589;51.578;7.306;2023-03-11T12:44:51;0.20;;;0.20;;
27039;SDS011;14589;51.578;7.306;2023-03-11T12:47:24;0.20;;;0.20;;
27039;SDS011;14589;51.578;7.306;2023-03-11T12:52:55;0.20;;;0.20;;
27039;SDS011;14589;51.578;7.306;2023-03-11T12:55:28;0.20;;;0.20;;
27039;SDS011;14589;51.578;7.306;2023-03-11T12:58:00;0.28;;;0.28;;
27039;SDS011;14589;51.578;7.306;2023-03-11T13:00:59;0.30;;;0.30;;
27039;SDS011;14589;51.578;7.306;2023-03-11T13:03:31;0.30;;;0.30;;
27039;SDS011;14589;51.578;7.306;2023-03-11T13:08:47;0.20;;;0.20;;
27039;SDS011;14589;51.578;7.306;2023-03-11T13:19:52;0.30;;;0.30;;
27039;SDS011;14589;51.578;7.306;2023-03-11T13:27:50;0.30;;;0.30;;
27039;SDS011;14589;51.578;7.306;2023-03-11T13:30:20;0.30;;;0.30;;
27039;SDS011;14589;51.578;7.306;2023-03-11T13:35:44;0.20;;;0.20;;
27039;SDS011;14589;51.578;7.306;2023-03-11T13:38:37;0.20;;;0.20;;
27039;SDS011;14589;51.578;7.306;2023-03-11T13:41:29;0.20;;;0.20;;
27039;SDS011;14589;51.578;7.306;2023-03-11T13:47:06;0.10;;;0.10;;
27039;SDS011;14589;51.578;7.306;2023-03-11T13:52:26;0.10;;;0.10;;
27039;SDS011;14589;51.578;7.306;2023-03-11T13:55:00;0.13;;;0.13;;
27039;SDS011;14589;51.578;7.306;2023-03-11T13:57:28;0.10;;;0.10;;
27039;SDS011;14589;51.578;7.306;2023-03-11T14:00:09;0.10;;;0.10;;
27039;SDS011;14589;51.578;7.306;2023-03-11T14:02:52;0.13;;;0.13;;
27039;SDS011;14589;51.578;7.306;2023-03-11T14:05:23;0.10;;;0.10;;
27039;SDS011;14589;51.578;7.306;2023-03-11T14:07:52;0.10;;;0.10;;
27039;SDS011;14589;51.578;7.306;2023-03-11T14:12:48;0.10;;;0.10;;
27039;SDS011;14589;51.578;7.306;2023-03-11T14:15:21;0.17;;;0.17;;
27039;SDS011;14589;51.578;7.306;2023-03-11T14:17:49;0.20;;;0.20;;
27039;SDS011;14589;51.578;7.306;2023-03-11T14:20:16;0.10;;;0.10;;
27039;SDS011;14589;51.578;7.306;2023-03-11T14:22:46;0.10;;;0.10;;
27039;SDS011;14589;51.578;7.306;2023-03-11T14:25:15;0.20;;;0.20;;
27039;SDS011;14589;51.578;7.306;2023-03-11T14:27:52;0.20;;;0.20;;
27039;SDS011;14589;51.578;7.306;2023-03-11T14:30:20;0.10;;;0.10;;
27039;SDS011;14589;51.578;7.306;2023-03-11T14:33:01;0.10;;;0.10;;
27039;SDS011;14589;51.578;7.306;2023-03-11T14:35:51;0.10;;;0.10;;
27039;SDS011;14589;51.578;7.306;2023-03-11T14:38:19;0.20;;;0.20;;
27039;SDS011;14589;51.578;7.306;2023-03-11T14:40:48;0.10;;;0.10;;
27039;SDS011;14589;51.578;7.306;2023-03-11T14:43:15;0.10;;;0.10;;
27039;SDS011;14589;51.578;7.306;2023-03-11T14:45:43;0.10;;;0.10;;
27039;SDS011;14589;51.578;7.306;2023-03-11T14:48:18;0.10;;;0.10;;
27039;SDS011;14589;51.578;7.306;2023-03-11T14:50:47;0.10;;;0.10;;
27039;SDS011;14589;51.578;7.306;2023-03-11T14:53:25;0.20;;;0.20;;
27039;SDS011;14589;51.578;7.306;2023-03-11T14:56:11;0.10;;;0.10;;
27039;SDS011;14589;51.578;7.306;2023-03-11T14:58:39;0.10;;;0.10;;
27039;SDS011;14589;51.578;7.306;2023-03-11T15:01:18;0.10;;;0.10;;
27039;SDS011;14589;51.578;7.306;2023-03-11T15:03:50;0.20;;;0.20;;
27039;SDS011;14589;51.578;7.306;2023-03-11T15:06:18;0.20;;;0.20;;
27039;SDS011;14589;51.578;7.306;2023-03-11T15:08:50;0.10;;;0.10;;
27039;SDS011;14589;51.578;7.306;2023-03-11T15:11:21;0.10;;;0.10;;
27039;SDS011;14589;51.578;7.306;2023-03-11T15:13:48;0.10;;;0.10;;
27039;SDS011;14589;51.578;7.306;2023-03-11T15:16:33;0.20;;;0.20;;
27039;SDS011;14589;51.578;7.306;2023-03-11T15:19:47;0.10;;;0.10;;
27039;SDS011;14589;51.578;7.306;2023-03-11T15:21:53;0.20;;;0.20;;
27039;SDS011;14589;51.578;7.306;2023-03-11T15:24:30;0.17;;;0.17;;
27039;SDS011;14589;51.578;7.306;2023-03-11T15:29:24;0.15;;;0.15;;
27039;SDS011;14589;51.578;7.306;2023-03-11T15:31:51;0.10;;;0.10;;
27039;SDS011;14589;51.578;7.306;2023-03-11T15:36:44;0.10;;;0.10;;
27039;SDS011;14589;51.578;7.306;2023-03-11T15:44:29;0.10;;;0.10;;
27039;SDS011;14589;51.578;7.306;2023-03-11T15:46:55;0.20;;;0.20;;
27039;SDS011;14589;51.578;7.306;2023-03-11T15:49:22;0.10;;;0.10;;
27039;SDS011;14589;51.578;7.306;2023-03-11T15:51:49;0.20;;;0.20;;
27039;SDS011;14589;51.578;7.306;2023-03-11T15:54:16;0.10;;;0.10;;
27039;SDS011;14589;51.578;7.306;2023-03-11T15:56:42;0.10;;;0.10;;
27039;SDS011;14589;51.578;7.306;2023-03-11T15:59:13;0.20;;;0.20;;
27039;SDS011;14589;51.578;7.306;2023-03-11T16:01:39;0.13;;;0.13;;
27039;SDS011;14589;51.578;7.306;2023-03-11T16:06:36;0.10;;;0.10;;
27039;SDS011;14589;51.578;7.306;2023-03-11T16:09:04;0.10;;;0.10;;
27039;SDS011;14589;51.578;7.306;2023-03-11T16:11:30;0.13;;;0.13;;
27039;SDS011;14589;51.578;7.306;2023-03-11T16:13:57;0.10;;;0.10;;
27039;SDS011;14589;51.578;7.306;2023-03-11T16:16:22;0.10;;;0.10;;
27039;SDS011;14589;51.578;7.306;2023-03-11T16:18:48;0.15;;;0.15;;
27039;SDS011;14589;51.578;7.306;2023-03-11T16:21:14;0.10;;;0.10;;
27039;SDS011;14589;51.578;7.306;2023-03-11T16:23:41;0.10;;;0.10;;
27039;SDS011;14589;51.578;7.306;2023-03-11T16:26:07;0.10;;;0.10;;
27039;SDS011;14589;51.578;7.306;2023-03-11T16:31:03;0.10;;;0.10;;
27039;SDS011;14589;51.578;7.306;2023-03-11T16:33:36;0.10;;;0.10;;
27039;SDS011;14589;51.578;7.306;2023-03-11T16:36:02;0.10;;;0.10;;
27039;SDS011;14589;51.578;7.306;2023-03-11T16:38:40;0.10;;;0.10;;
27039;SDS011;14589;51.578;7.306;2023-03-11T16:41:10;0.10;;;0.10;;
27039;SDS011;14589;51.578;7.306;2023-03-11T16:43:35;0.10;;;0.10;;
27039;SDS011;14589;51.578;7.306;2023-03-11T16:46:01;0.10;;;0.10;;
27039;SDS011;14589;51.578;7.306;2023-03-11T16:48:26;0.10;;;0.10;;
27039;SDS011;14589;51.578;7.306;2023-03-11T16:50:52;0.10;;;0.10;;
27039;SDS011;14589;51.578;7.306;2023-03-11T16:53:17;0.13;;;0.13;;
27039;SDS011;14589;51.578;7.306;2023-03-11T16:55:43;0.10;;;0.10;;
27039;SDS011;14589;51.578;7.306;2023-03-11T16:58:12;0.10;;;0.10;;
27039;SDS011;14589;51.578;7.306;2023-03-11T17:00:38;0.10;;;0.10;;
27039;SDS011;14589;51.578;7.306;2023-03-11T17:03:05;0.10;;;0.10;;
27039;SDS011;14589;51.578;7.306;2023-03-11T17:05:31;0.10;;;0.10;;
27039;SDS011;14589;51.578;7.306;2023-03-11T17:07:56;0.10;;;0.10;;
27039;SDS011;14589;51.578;7.306;2023-03-11T17:10:27;0.10;;;0.10;;
27039;SDS011;14589;51.578;7.306;2023-03-11T17:12:53;0.10;;;0.10;;
27039;SDS011;14589;51.578;7.306;2023-03-11T17:17:52;0.10;;;0.10;;
27039;SDS011;14589;51.578;7.306;2023-03-11T17:20:18;0.10;;;0.10;;
27039;SDS011;14589;51.578;7.306;2023-03-11T17:22:43;0.10;;;0.10;;
27039;SDS011;14589;51.578;7.306;2023-03-11T17:25:09;0.10;;;0.10;;
27039;SDS011;14589;51.578;7.306;2023-03-11T17:27:34;0.10;;;0.10;;
27039;SDS011;14589;51.578;7.306;2023-03-11T17:30:00;0.10;;;0.10;;
27039;SDS011;14589;51.578;7.306;2023-03-11T17:32:27;0.10;;;0.10;;
27039;SDS011;14589;51.578;7.306;2023-03-11T17:34:53;0.10;;;0.10;;
27039;SDS011;14589;51.578;7.306;2023-03-11T17:37:18;0.10;;;0.10;;
27039;SDS011;14589;51.578;7.306;2023-03-11T17:39:44;0.10;;;0.10;;
27039;SDS011;14589;51.578;7.306;2023-03-11T17:42:10;0.10;;;0.10;;
27039;SDS011;14589;51.578;7.306;2023-03-11T17:44:36;0.10;;;0.10;;
27039;SDS011;14589;51.578;7.306;2023-03-11T17:47:01;0.10;;;0.10;;
27039;SDS011;14589;51.578;7.306;2023-03-11T17:49:27;0.10;;;0.10;;
27039;SDS011;14589;51.578;7.306;2023-03-11T17:51:52;0.10;;;0.10;;
27039;SDS011;14589;51.578;7.306;2023-03-11T17:54:18;0.10;;;0.10;;
27039;SDS011;14589;51.578;7.306;2023-03-11T17:56:43;0.10;;;0.10;;
27039;SDS011;14589;51.578;7.306;2023-03-11T17:59:14;0.10;;;0.10;;
27039;SDS011;14589;51.578;7.306;2023-03-11T18:01:39;0.10;;;0.10;;
27039;SDS011;14589;51.578;7.306;2023-03-11T18:04:05;0.10;;;0.10;;
27039;SDS011;14589;51.578;7.306;2023-03-11T18:06:31;0.10;;;0.10;;
27039;SDS011;14589;51.578;7.306;2023-03-11T18:08:56;0.10;;;0.10;;
27039;SDS011;14589;51.578;7.306;2023-03-11T18:11:23;0.10;;;0.10;;
27039;SDS011;14589;51.578;7.306;2023-03-11T18:13:49;0.10;;;0.10;;
27039;SDS011;14589;51.578;7.306;2023-03-11T18:18:46;0.10;;;0.10;;
27039;SDS011;14589;51.578;7.306;2023-03-11T18:21:29;0.10;;;0.10;;
27039;SDS011;14589;51.578;7.306;2023-03-11T18:23:55;0.10;;;0.10;;
27039;SDS011;14589;51.578;7.306;2023-03-11T18:26:23;0.10;;;0.10;;
27039;SDS011;14589;51.578;7.306;2023-03-11T18:31:22;0.10;;;0.10;;
27039;SDS011;14589;51.578;7.306;2023-03-11T18:33:49;0.10;;;0.10;;
27039;SDS011;14589;51.578;7.306;2023-03-11T18:36:29;0.00;;;0.00;;
27039;SDS011;14589;51.578;7.306;2023-03-11T18:39:01;0.08;;;0.08;;
27039;SDS011;14589;51.578;7.306;2023-03-11T18:41:28;0.05;;;0.05;;
27039;SDS011;14589;51.578;7.306;2023-03-11T18:43:56;0.10;;;0.10;;
27039;SDS011;14589;51.578;7.306;2023-03-11T18:46:22;0.10;;;0.10;;
27039;SDS011;14589;51.578;7.306;2023-03-11T18:48:51;0.10;;;0.10;;
27039;SDS011;14589;51.578;7.306;2023-03-11T18:51:18;0.00;;;0.00;;
27039;SDS011;14589;51.578;7.306;2023-03-11T18:53:44;0.10;;;0.10;;
27039;SDS011;14589;51.578;7.306;2023-03-11T18:56:11;0.00;;;0.00;;
27039;SDS011;14589;51.578;7.306;2023-03-11T18:58:38;0.10;;;0.10;;
27039;SDS011;14589;51.578;7.306;2023-03-11T19:01:07;0.10;;;0.10;;
27039;SDS011;14589;51.578;7.306;2023-03-11T19:03:43;0.10;;;0.10;;
27039;SDS011;14589;51.578;7.306;2023-03-11T19:06:10;0.00;;;0.00;;
27039;SDS011;14589;51.578;7.306;2023-03-11T19:08:37;0.10;;;0.10;;
27039;SDS011;14589;51.578;7.306;2023-03-11T19:11:09;0.00;;;0.00;;
27039;SDS011;14589;51.578;7.306;2023-03-11T19:13:37;0.03;;;0.03;;
27039;SDS011;14589;51.578;7.306;2023-03-11T19:16:07;0.10;;;0.10;;
27039;SDS011;14589;51.578;7.306;2023-03-11T19:18:34;0.10;;;0.10;;
27039;SDS011;14589;51.578;7.306;2023-03-11T19:21:00;0.10;;;0.10;;
27039;SDS011;14589;51.578;7.306;2023-03-11T19:23:28;0.00;;;0.00;;
27039;SDS011;14589;51.578;7.306;2023-03-11T19:25:58;0.10;;;0.10;;
27039;SDS011;14589;51.578;7.306;2023-03-11T19:28:25;0.00;;;0.00;;
27039;SDS011;14589;51.578;7.306;2023-03-11T19:30:53;0.00;;;0.00;;
27039;SDS011;14589;51.578;7.306;2023-03-11T19:33:20;0.00;;;0.00;;
27039;SDS011;14589;51.578;7.306;2023-03-11T19:35:53;0.08;;;0.08;;
27039;SDS011;14589;51.578;7.306;2023-03-11T19:38:20;0.10;;;0.10;;
27039;SDS011;14589;51.578;7.306;2023-03-11T19:40:49;0.00;;;0.00;;
27039;SDS011;14589;51.578;7.306;2023-03-11T19:43:16;0.10;;;0.10;;
27039;SDS011;14589;51.578;7.306;2023-03-11T19:45:45;0.00;;;0.00;;
27039;SDS011;14589;51.578;7.306;2023-03-11T19:48:11;0.10;;;0.10;;
27039;SDS011;14589;51.578;7.306;2023-03-11T19:50:36;0.00;;;0.00;;
27039;SDS011;14589;51.578;7.306;2023-03-11T19:53:02;0.00;;;0.00;;
27039;SDS011;14589;51.578;7.306;2023-03-11T19:55:27;0.10;;;0.10;;
27039;SDS011;14589;51.578;7.306;2023-03-11T19:57:53;0.00;;;0.00;;
27039;SDS011;14589;51.578;7.306;2023-03-11T20:00:18;0.10;;;0.10;;
27039;SDS011;14589;51.578;7.306;2023-03-11T20:02:46;0.00;;;0.00;;
27039;SDS011;14589;51.578;7.306;2023-03-11T20:05:11;0.03;;;0.03;;
27039;SDS011;14589;51.578;7.306;2023-03-11T20:07:38;0.00;;;0.00;;
27039;SDS011;14589;51.578;7.306;2023-03-11T20:10:03;0.00;;;0.00;;
27039;SDS011;14589;51.578;7.306;2023-03-11T20:12:29;0.00;;;0.00;;
27039;SDS011;14589;51.578;7.306;2023-03-11T20:14:54;0.00;;;0.00;;
27039;SDS011;14589;51.578;7.306;2023-03-11T20:17:20;0.08;;;0.08;;
27039;SDS011;14589;51.578;7.306;2023-03-11T20:19:45;0.10;;;0.10;;
27039;SDS011;14589;51.578;7.306;2023-03-11T20:22:11;0.00;;;0.00;;
27039;SDS011;14589;51.578;7.306;2023-03-11T20:24:36;0.00;;;0.00;;
27039;SDS011;14589;51.578;7.306;2023-03-11T20:27:01;0.00;;;0.00;;
27039;SDS011;14589;51.578;7.306;2023-03-11T20:29:27;0.10;;;0.10;;
27039;SDS011;14589;51.578;7.306;2023-03-11T20:31:52;0.00;;;0.00;;
27039;SDS011;14589;51.578;7.306;2023-03-11T20:34:18;0.00;;;0.00;;
27039;SDS011;14589;51.578;7.306;2023-03-11T20:36:43;0.00;;;0.00;;
27039;SDS011;14589;51.578;7.306;2023-03-11T20:39:08;0.00;;;0.00;;
27039;SDS011;14589;51.578;7.306;2023-03-11T20:41:35;0.10;;;0.10;;
27039;SDS011;14589;51.578;7.306;2023-03-11T20:44:02;0.00;;;0.00;;
27039;SDS011;14589;51.578;7.306;2023-03-11T20:46:29;0.10;;;0.10;;
27039;SDS011;14589;51.578;7.306;2023-03-11T20:48:55;0.00;;;0.00;;
27039;SDS011;14589;51.578;7.306;2023-03-11T20:51:21;0.00;;;0.00;;
27039;SDS011;14589;51.578;7.306;2023-03-11T20:53:48;0.00;;;0.00;;
27039;SDS011;14589;51.578;7.306;2023-03-11T20:56:15;0.08;;;0.08;;
27039;SDS011;14589;51.578;7.306;2023-03-11T20:58:42;0.10;;;0.10;;
27039;SDS011;14589;51.578;7.306;2023-03-11T21:01:13;0.10;;;0.10;;
27039;SDS011;14589;51.578;7.306;2023-03-11T21:03:43;0.10;;;0.10;;
27039;SDS011;14589;51.578;7.306;2023-03-11T21:06:16;0.03;;;0.03;;
27039;SDS011;14589;51.578;7.306;2023-03-11T21:08:43;0.10;;;0.10;;
27039;SDS011;14589;51.578;7.306;2023-03-11T21:11:09;0.10;;;0.10;;
27039;SDS011;14589;51.578;7.306;2023-03-11T21:13:35;0.10;;;0.10;;
27039;SDS011;14589;51.578;7.306;2023-03-11T21:16:01;0.10;;;0.10;;
27039;SDS011;14589;51.578;7.306;2023-03-11T21:18:27;0.00;;;0.00;;
27039;SDS011;14589;51.578;7.306;2023-03-11T21:20:52;0.10;;;0.10;;
27039;SDS011;14589;51.578;7.306;2023-03-11T21:23:18;0.00;;;0.00;;
27039;SDS011;14589;51.578;7.306;2023-03-11T21:25:43;0.10;;;0.10;;
27039;SDS011;14589;51.578;7.306;2023-03-11T21:28:09;0.10;;;0.10;;
27039;SDS011;14589;51.578;7.306;2023-03-11T21:30:34;0.10;;;0.10;;
27039;SDS011;14589;51.578;7.306;2023-03-11T21:33:00;0.10;;;0.10;;
27039;SDS011;14589;51.578;7.306;2023-03-11T21:35:27;0.10;;;0.10;;
27039;SDS011;14589;51.578;7.306;2023-03-11T21:37:52;0.10;;;0.10;;
27039;SDS011;14589;51.578;7.306;2023-03-11T21:40:18;0.10;;;0.10;;
27039;SDS011;14589;51.578;7.306;2023-03-11T21:42:44;0.00;;;0.00;;
27039;SDS011;14589;51.578;7.306;2023-03-11T21:45:11;0.10;;;0.10;;
27039;SDS011;14589;51.578;7.306;2023-03-11T21:47:37;0.00;;;0.00;;
27039;SDS011;14589;51.578;7.306;2023-03-11T21:50:03;0.10;;;0.10;;
27039;SDS011;14589;51.578;7.306;2023-03-11T21:52:29;0.00;;;0.00;;
27039;SDS011;14589;51.578;7.306;2023-03-11T21:54:55;0.00;;;0.00;;
27039;SDS011;14589;51.578;7.306;2023-03-11T21:57:21;0.00;;;0.00;;
27039;SDS011;14589;51.578;7.306;2023-03-11T21:59:47;0.00;;;0.00;;
27039;SDS011;14589;51.578;7.306;2023-03-11T22:02:13;0.10;;;0.10;;
27039;SDS011;14589;51.578;7.306;2023-03-11T22:04:39;0.00;;;0.00;;
27039;SDS011;14589;51.578;7.306;2023-03-11T22:07:05;0.00;;;0.00;;
27039;SDS011;14589;51.578;7.306;2023-03-11T22:09:30;0.10;;;0.10;;
27039;SDS011;14589;51.578;7.306;2023-03-11T22:11:55;0.10;;;0.10;;
27039;SDS011;14589;51.578;7.306;2023-03-11T22:14:21;0.00;;;0.00;;
27039;SDS011;14589;51.578;7.306;2023-03-11T22:16:46;0.00;;;0.00;;
27039;SDS011;14589;51.578;7.306;2023-03-11T22:19:12;0.00;;;0.00;;
27039;SDS011;14589;51.578;7.306;2023-03-11T22:21:43;0.10;;;0.10;;
27039;SDS011;14589;51.578;7.306;2023-03-11T22:24:09;0.05;;;0.05;;
27039;SDS011;14589;51.578;7.306;2023-03-11T22:26:34;0.00;;;0.00;;
27039;SDS011;14589;51.578;7.306;2023-03-11T22:29:00;0.00;;;0.00;;
